Time;durP1;ratioP1;P1;durP2;ratioP2;P2;SDS_P1;SDS_P2;PMS_P1;PMS_P2;Temp;Humidity;BMP_temperature;BMP_pressure;BME280_temperature;BME280_humidity;BME280_pressure;Samples;Min_cycle;Max_cycle;Signal;HPM_P1;HPM_P2
2023/06/24 00:04:54;;;;;;;4.25;3.85;;;;;;;21.89;57.35;100984.53;10396159;28;20292;-55
2023/06/24 00:09:55;;;;;;;5.15;4.40;;;;;;;21.87;57.26;100991.16;10393052;28;20079;-52
2023/06/24 00:14:58;;;;;;;5.07;4.57;;;;;;;21.82;57.44;100986.28;10384307;28;20060;-53
2023/06/24 00:20:00;;;;;;;4.07;3.75;;;;;;;21.78;57.89;100992.25;10392876;28;20112;-52
2023/06/24 00:25:01;;;;;;;5.28;4.78;;;;;;;21.71;58.20;100986.72;10389682;28;20106;-53
2023/06/24 00:30:03;;;;;;;4.85;4.32;;;;;;;21.66;58.62;100995.38;10392899;28;20164;-52
2023/06/24 00:35:05;;;;;;;4.50;4.10;;;;;;;21.61;58.69;100992.34;10390661;28;20158;-52
2023/06/24 00:40:11;;;;;;;4.63;4.15;;;;;;;21.54;58.90;100994.94;10389780;28;20114;-53
2023/06/24 00:45:12;;;;;;;5.55;5.05;;;;;;;21.51;59.38;100998.00;10389453;28;20077;-53
2023/06/24 00:50:15;;;;;;;5.10;4.60;;;;;;;21.46;59.63;100997.63;10384969;28;20053;-53
2023/06/24 00:55:17;;;;;;;5.68;4.72;;;;;;;21.42;60.03;100993.59;10387913;28;20560;-53
2023/06/24 01:00:21;;;;;;;5.20;4.75;;;;;;;21.36;60.21;100991.59;10390801;28;20060;-53
2023/06/24 01:05:24;;;;;;;5.00;4.50;;;;;;;21.31;60.23;100996.69;10390567;28;20056;-53
2023/06/24 01:10:26;;;;;;;5.73;4.80;;;;;;;21.22;60.45;100990.47;10393475;28;20049;-53
2023/06/24 01:15:28;;;;;;;5.43;4.93;;;;;;;21.17;60.66;100996.41;10392310;28;20050;-53
2023/06/24 01:20:46;;;;;;;4.85;4.45;;;;;;;21.02;61.73;100985.47;10395862;28;20053;-53
2023/06/24 01:26:09;;;;;;;5.07;4.68;;;;;;;20.92;61.95;100989.41;10396282;28;20049;-53
2023/06/24 01:31:32;;;;;;;5.10;4.38;;;;;;;20.86;62.46;100995.50;10394746;28;20399;-54
2023/06/24 01:36:37;;;;;;;5.35;4.82;;;;;;;20.79;62.29;101007.03;10393130;28;20693;-53
2023/06/24 01:41:43;;;;;;;4.95;4.55;;;;;;;20.72;62.76;101002.47;10395156;28;20858;-53
2023/06/24 01:46:48;;;;;;;4.57;4.00;;;;;;;20.70;63.14;100999.91;10395809;28;20050;-53
2023/06/24 01:51:50;;;;;;;4.95;4.47;;;;;;;20.65;63.08;101003.13;10388060;28;20195;-53
2023/06/24 01:56:56;;;;;;;5.87;5.37;;;;;;;20.53;63.74;100992.81;10398691;28;20049;-53
2023/06/24 02:01:59;;;;;;;6.28;5.65;;;;;;;20.60;63.37;100999.25;10390095;28;20100;-53
2023/06/24 02:07:03;;;;;;;5.47;4.60;;;;;;;20.60;63.25;101005.50;10398942;28;20061;-53
2023/06/24 02:12:07;;;;;;;6.60;4.78;;;;;;;20.56;63.39;101001.44;10397965;28;20057;-54
2023/06/24 02:17:11;;;;;;;5.93;5.22;;;;;;;20.52;63.59;101004.66;10392064;28;20084;-53
2023/06/24 02:22:14;;;;;;;6.50;5.22;;;;;;;20.47;63.63;100992.47;10396230;28;20052;-53
2023/06/24 02:27:17;;;;;;;5.85;5.25;;;;;;;20.45;63.60;100983.72;10396630;28;20056;-53
2023/06/24 02:32:18;;;;;;;5.63;5.07;;;;;;;20.39;63.84;100997.91;10390941;28;20056;-53
2023/06/24 02:37:19;;;;;;;5.38;4.88;;;;;;;20.29;63.79;100998.06;10394341;28;20051;-53
2023/06/24 02:42:21;;;;;;;4.88;4.38;;;;;;;20.23;64.42;100998.75;10391242;28;21512;-54
2023/06/24 02:47:23;;;;;;;4.68;4.28;;;;;;;20.18;64.39;100993.00;10400128;28;20048;-53
2023/06/24 02:52:28;;;;;;;5.38;4.35;;;;;;;20.12;64.76;101007.22;10387482;28;20081;-53
2023/06/24 02:57:30;;;;;;;5.78;4.78;;;;;;;20.04;65.10;101004.47;10395054;28;20049;-53
2023/06/24 03:02:32;;;;;;;6.13;4.70;;;;;;;19.97;65.26;101004.31;10387584;28;20149;-53
2023/06/24 03:07:36;;;;;;;5.07;4.68;;;;;;;19.91;65.63;100994.19;10388074;28;20819;-53
2023/06/24 03:12:38;;;;;;;;;;;;;;;19.91;65.60;100995.00;10386269;28;20136;-53
2023/06/24 03:17:39;;;;;;;5.43;4.93;;;;;;;19.85;65.83;100992.16;10390249;28;19932;-53
2023/06/24 03:22:41;;;;;;;4.97;4.53;;;;;;;19.89;65.45;101001.59;10386274;28;20537;-53
2023/06/24 03:27:42;;;;;;;5.30;4.68;;;;;;;19.87;65.69;101006.31;10391065;28;20052;-53
2023/06/24 03:32:46;;;;;;;5.22;4.72;;;;;;;19.87;65.48;101009.84;10382504;28;20106;-53
2023/06/24 03:37:49;;;;;;;5.22;4.05;;;;;;;19.87;65.44;101009.03;10385099;28;20415;-53
2023/06/24 03:42:50;;;;;;;5.70;4.88;;;;;;;19.86;65.36;101010.88;10375153;28;20049;-53
2023/06/24 03:47:52;;;;;;;5.60;5.13;;;;;;;19.86;65.30;101002.78;10384681;28;20049;-53
2023/06/24 03:52:53;;;;;;;5.13;4.60;;;;;;;19.84;65.38;101003.97;10379472;28;20076;-54
2023/06/24 03:57:55;;;;;;;5.63;5.13;;;;;;;19.82;65.42;101011.41;10385772;28;20053;-54
2023/06/24 04:02:56;;;;;;;5.35;4.85;;;;;;;19.78;65.56;101011.69;10384208;28;20065;-57
2023/06/24 04:07:57;;;;;;;5.40;4.50;;;;;;;19.78;65.57;101032.47;10386285;28;20068;-56
2023/06/24 04:12:59;;;;;;;6.88;4.82;;;;;;;19.72;65.95;101023.13;10382212;28;20056;-54
2023/06/24 04:18:01;;;;;;;5.35;4.85;;;;;;;19.50;66.53;101031.84;10389220;28;20067;-55
2023/06/24 04:23:05;;;;;;;5.85;4.65;;;;;;;19.50;66.69;101034.53;10386414;28;20049;-54
2023/06/24 04:28:06;;;;;;;5.50;5.00;;;;;;;19.46;66.54;101038.59;10384828;28;20191;-54
2023/06/24 04:33:08;;;;;;;5.57;5.07;;;;;;;19.36;66.24;101039.53;10384556;28;20140;-54
2023/06/24 04:38:09;;;;;;;5.95;5.20;;;;;;;19.36;67.35;101034.16;10389050;28;20052;-54
2023/06/24 04:43:11;;;;;;;7.03;5.43;;;;;;;19.37;66.41;101041.25;10391135;28;20560;-54
2023/06/24 04:48:13;;;;;;;6.15;5.55;;;;;;;19.38;67.02;101040.25;10379572;28;20582;-54
2023/06/24 04:53:14;;;;;;;5.53;4.95;;;;;;;19.41;67.16;101045.31;10391277;28;20118;-54
2023/06/24 04:58:15;;;;;;;7.20;6.22;;;;;;;19.43;67.27;101050.56;10396773;28;20095;-54
2023/06/24 05:03:17;;;;;;;7.90;7.15;;;;;;;19.32;67.49;101043.59;10381096;28;20064;-54
2023/06/24 05:08:19;;;;;;;6.95;5.97;;;;;;;19.37;67.63;101048.50;10390004;28;20083;-54
2023/06/24 05:13:20;;;;;;;9.85;7.57;;;;;;;19.47;67.64;101057.34;10389723;28;20064;-54
2023/06/24 05:18:22;;;;;;;8.90;8.00;;;;;;;19.45;68.29;101059.31;10388028;28;21674;-54
2023/06/24 05:23:23;;;;;;;9.38;7.13;;;;;;;19.53;67.80;101072.00;10394861;28;20072;-54
2023/06/24 05:28:25;;;;;;;6.50;5.97;;;;;;;19.60;67.47;101079.28;10393169;28;20057;-54
2023/06/24 05:33:26;;;;;;;6.82;6.22;;;;;;;19.67;67.17;101070.56;10382905;28;20064;-54
2023/06/24 05:38:28;;;;;;;9.30;6.32;;;;;;;19.75;67.02;101076.81;10378930;28;20137;-54
2023/06/24 05:43:29;;;;;;;6.43;5.78;;;;;;;19.84;67.03;101087.69;10376445;28;20308;-57
2023/06/24 05:48:31;;;;;;;7.03;6.43;;;;;;;19.87;66.64;101084.66;10389671;28;22093;-57
2023/06/24 05:53:32;;;;;;;8.95;6.72;;;;;;;19.90;66.82;101081.63;10381387;28;20048;-58
2023/06/24 05:58:34;;;;;;;6.78;6.18;;;;;;;19.93;66.34;101086.72;10374149;28;23006;-57
2023/06/24 06:03:35;;;;;;;6.80;6.20;;;;;;;20.04;65.78;101080.16;10375119;28;20050;-61
2023/06/24 06:08:37;;;;;;;7.07;6.43;;;;;;;20.10;65.55;101072.22;10374991;28;20064;-58
2023/06/24 06:13:39;;;;;;;7.50;6.80;;;;;;;20.20;65.80;101076.63;10377286;28;20061;-57
2023/06/24 06:18:40;;;;;;;11.00;9.00;;;;;;;20.30;64.62;101085.44;10372523;28;20171;-58
2023/06/24 06:23:41;;;;;;;8.80;8.00;;;;;;;20.38;64.55;101082.72;10384096;28;20202;-57
2023/06/24 06:28:43;;;;;;;7.28;6.57;;;;;;;20.50;64.24;101080.53;10379528;28;20137;-57
2023/06/24 06:33:44;;;;;;;6.63;6.03;;;;;;;20.66;64.12;101075.16;10375424;28;20060;-58
2023/06/24 06:38:46;;;;;;;6.95;5.57;;;;;;;20.80;63.17;101070.91;10385522;28;20049;-53
2023/06/24 06:43:47;;;;;;;9.30;6.75;;;;;;;20.94;63.36;101077.53;10383208;28;20049;-53
2023/06/24 06:48:49;;;;;;;7.15;6.40;;;;;;;21.09;62.84;101082.22;10384029;28;20050;-53
2023/06/24 06:53:50;;;;;;;6.82;6.22;;;;;;;21.22;62.49;101076.28;10378025;28;20049;-53
2023/06/24 06:58:52;;;;;;;7.30;6.60;;;;;;;21.37;61.61;101082.66;10379446;28;20057;-53
2023/06/24 07:03:55;;;;;;;7.18;6.28;;;;;;;21.48;61.51;101078.72;10381080;28;20141;-53
2023/06/24 07:08:57;;;;;;;6.97;6.28;;;;;;;21.62;61.06;101079.84;10377387;28;20682;-53
2023/06/24 07:13:58;;;;;;;6.25;5.65;;;;;;;21.78;60.63;101076.25;10375200;28;20044;-53
2023/06/24 07:19:00;;;;;;;7.38;6.68;;;;;;;21.83;59.76;101071.97;10368445;28;20282;-53
2023/06/24 07:24:01;;;;;;;6.40;5.80;;;;;;;21.88;59.74;101068.72;10371262;28;20063;-53
2023/06/24 07:29:05;;;;;;;7.43;6.72;;;;;;;22.12;59.80;101069.63;10380118;28;20060;-53
2023/06/24 07:34:11;;;;;;;6.53;5.93;;;;;;;22.31;59.81;101070.97;10379205;28;20111;-53
2023/06/24 07:39:13;;;;;;;6.57;5.30;;;;;;;22.52;58.54;101070.34;10382605;28;20052;-53
2023/06/24 07:44:14;;;;;;;7.45;5.53;;;;;;;22.59;57.16;101077.59;10391120;28;20049;-53
2023/06/24 07:49:15;;;;;;;6.72;5.65;;;;;;;22.73;56.29;101069.69;10374894;28;20053;-53
2023/06/24 07:54:17;;;;;;;6.15;5.63;;;;;;;22.87;55.62;101077.00;10381765;28;20096;-54
2023/06/24 07:59:19;;;;;;;6.32;4.80;;;;;;;23.03;55.66;101069.69;10368511;28;20099;-53
2023/06/24 08:04:20;;;;;;;7.03;6.22;;;;;;;23.24;55.49;101069.84;10372875;28;20602;-53
2023/06/24 08:09:22;;;;;;;6.38;5.80;;;;;;;23.37;54.65;101069.19;10379433;28;20525;-53
2023/06/24 08:14:23;;;;;;;7.60;5.95;;;;;;;23.51;54.52;101070.22;10377895;28;20072;-53
2023/06/24 08:19:25;;;;;;;5.82;5.32;;;;;;;23.70;53.81;101065.22;10378518;28;20301;-53
2023/06/24 08:24:26;;;;;;;5.63;5.13;;;;;;;23.92;52.51;101061.53;10371111;28;20072;-58
2023/06/24 08:34:47;;;;;;;5.85;4.95;;;;;;;24.21;51.03;101050.75;10385855;28;20149;-58
2023/06/24 08:39:49;;;;;;;5.93;4.90;;;;;;;24.35;50.86;101045.25;10384664;28;20069;-57
2023/06/24 08:44:51;;;;;;;7.03;5.20;;;;;;;24.61;48.60;101051.16;10377193;28;20049;-58
2023/06/24 08:50:10;;;;;;;6.93;4.55;;;;;;;24.66;48.58;101052.22;10371482;28;20041;-57
2023/06/24 08:55:13;;;;;;;4.45;4.05;;;;;;;24.78;47.96;101041.63;10376813;28;20115;-57
2023/06/24 09:00:16;;;;;;;5.03;4.53;;;;;;;25.00;47.07;101052.47;10382299;28;20063;-57
2023/06/24 09:05:17;;;;;;;6.17;5.57;;;;;;;25.18;46.39;101049.22;10380700;28;20068;-57
2023/06/24 09:10:33;;;;;;;4.53;3.83;;;;;;;25.35;45.26;101047.03;10387517;28;20049;-58
2023/06/24 09:15:37;;;;;;;4.07;3.50;;;;;;;25.57;45.54;101039.59;10390179;28;20044;-57
2023/06/24 09:20:44;;;;;;;4.82;3.60;;;;;;;25.87;44.95;101028.38;10396049;28;20474;-58
2023/06/24 09:25:55;;;;;;;4.10;3.58;;;;;;;26.28;44.68;101019.22;10388669;28;20657;-58
2023/06/24 09:31:09;;;;;;;7.43;4.45;;;;;;;26.39;42.38;101013.16;10376972;28;20097;-57
2023/06/24 09:36:16;;;;;;;4.63;4.22;;;;;;;26.40;42.75;101014.81;10382238;28;20060;-59
2023/06/24 09:41:18;;;;;;;5.85;4.15;;;;;;;26.52;43.20;101012.28;10380716;28;20600;-58
2023/06/24 09:46:20;;;;;;;4.65;4.25;;;;;;;26.60;41.02;100992.97;10391032;28;20067;-58
2023/06/24 09:51:24;;;;;;;3.90;3.50;;;;;;;26.60;42.90;100987.50;10393307;28;20627;-57
2023/06/24 09:56:27;;;;;;;4.32;2.90;;;;;;;26.49;42.83;100982.69;10393074;28;22707;-58
2023/06/24 10:01:29;;;;;;;4.15;3.67;;;;;;;26.48;41.43;100977.44;10392887;28;20057;-57
2023/06/24 10:06:32;;;;;;;4.38;3.88;;;;;;;26.47;42.08;100968.41;10387416;28;20049;-57
2023/06/24 10:11:34;;;;;;;;;;;;;;;26.84;40.47;100965.22;10389033;28;20553;-57
2023/06/24 10:16:36;;;;;;;5.45;4.10;;;;;;;27.23;39.37;100960.69;10394393;28;20966;-58
2023/06/24 10:21:51;;;;;;;3.60;3.30;;;;;;;27.46;38.11;100963.75;10386359;28;20061;-58
2023/06/24 10:26:52;;;;;;;5.90;5.35;;;;;;;27.68;38.22;100947.00;10384511;28;20053;-60
2023/06/24 10:31:54;;;;;;;4.55;3.70;;;;;;;27.80;37.78;100931.59;10380920;28;20665;-57
2023/06/24 10:37:03;;;;;;;4.68;4.10;;;;;;;27.86;36.45;100941.63;10395653;28;20049;-57
2023/06/24 10:42:23;;;;;;;4.47;3.70;;;;;;;27.79;36.82;100939.97;10393200;28;20040;-57
2023/06/24 10:47:26;;;;;;;4.35;3.95;;;;;;;27.61;36.13;100924.31;10386135;28;20056;-58
2023/06/24 10:52:28;;;;;;;3.13;2.83;;;;;;;27.51;37.49;100925.66;10392216;28;20049;-57
2023/06/24 10:57:29;;;;;;;3.55;3.03;;;;;;;27.79;37.32;100921.69;10395858;28;20511;-57
2023/06/24 11:02:31;;;;;;;5.50;3.53;;;;;;;28.13;37.62;100918.72;10385822;28;20145;-57
2023/06/24 11:07:37;;;;;;;4.00;3.60;;;;;;;28.29;36.29;100911.84;10392341;28;20302;-57
2023/06/24 11:12:40;;;;;;;4.35;3.95;;;;;;;28.53;36.29;100900.00;10387821;28;20049;-58
2023/06/24 11:17:42;;;;;;;4.32;3.42;;;;;;;28.86;36.24;100890.59;10390017;28;20053;-58
2023/06/24 11:22:44;;;;;;;4.75;3.75;;;;;;;29.10;34.84;100891.53;10388264;28;20523;-57
2023/06/24 11:27:45;;;;;;;5.68;3.30;;;;;;;29.22;34.16;100891.63;10386963;28;20838;-57
2023/06/24 11:32:48;;;;;;;5.15;4.00;;;;;;;29.39;33.41;100877.28;10388335;28;20084;-58
2023/06/24 11:37:49;;;;;;;;;;;;;;;29.32;34.00;100879.25;10385760;28;21331;-57
2023/06/24 11:42:51;;;;;;;4.18;3.47;;;;;;;29.50;33.34;100873.75;10381073;28;19927;-58
2023/06/24 11:47:52;;;;;;;3.67;3.37;;;;;;;29.42;32.90;100871.31;10390514;28;20728;-56
2023/06/24 11:52:54;;;;;;;4.20;3.53;;;;;;;29.07;33.79;100870.09;10385810;28;20064;-57
2023/06/24 11:58:05;;;;;;;3.40;3.10;;;;;;;28.68;34.14;100861.31;10382366;28;20049;-57
2023/06/24 12:03:09;;;;;;;3.17;2.60;;;;;;;28.70;34.47;100855.59;10383592;28;20544;-58
2023/06/24 12:08:15;;;;;;;3.20;2.90;;;;;;;28.55;34.69;100851.34;10381839;28;20072;-57
2023/06/24 12:13:18;;;;;;;4.22;3.63;;;;;;;29.01;34.24;100848.28;10382930;28;20041;-57
2023/06/24 12:18:20;;;;;;;4.20;2.80;;;;;;;29.36;34.10;100837.44;10387093;28;20049;-58
2023/06/24 12:23:21;;;;;;;3.30;3.00;;;;;;;29.58;33.13;100843.22;10389182;28;20374;-57
2023/06/24 12:28:23;;;;;;;3.70;2.42;;;;;;;29.49;33.50;100836.41;10379094;28;20384;-57
2023/06/24 12:33:24;;;;;;;3.20;2.80;;;;;;;29.48;33.76;100831.97;10391172;28;20049;-57
2023/06/24 12:38:26;;;;;;;5.63;3.63;;;;;;;29.23;33.16;100829.41;10384601;28;20846;-57
2023/06/24 12:43:27;;;;;;;4.40;3.27;;;;;;;29.17;33.80;100814.72;10382652;28;20075;-57
2023/06/24 12:48:29;;;;;;;4.67;3.53;;;;;;;29.30;33.65;100810.13;10383454;28;20183;-57
2023/06/24 12:53:30;;;;;;;4.78;3.38;;;;;;;29.57;33.30;100807.81;10388464;28;20060;-57
2023/06/24 12:58:32;;;;;;;4.40;3.50;;;;;;;29.66;33.08;100800.06;10386833;28;20053;-56
2023/06/24 13:03:33;;;;;;;3.20;3.00;;;;;;;29.30;32.04;100796.44;10370642;28;20633;-57
2023/06/24 13:08:35;;;;;;;3.90;3.60;;;;;;;29.11;32.78;100799.22;10375974;28;20271;-57
2023/06/24 13:13:36;;;;;;;4.57;4.17;;;;;;;29.02;32.69;100803.34;10385594;28;20057;-57
2023/06/24 13:18:38;;;;;;;3.40;3.10;;;;;;;28.97;33.24;100793.06;10386814;28;20045;-57
2023/06/24 13:23:39;;;;;;;4.10;3.70;;;;;;;28.94;33.11;100798.19;10389956;28;20319;-57
2023/06/24 13:28:42;;;;;;;4.50;2.97;;;;;;;28.74;34.39;100788.34;10389432;28;20052;-58
2023/06/24 13:33:43;;;;;;;3.78;3.35;;;;;;;28.72;33.40;100793.25;10392712;28;20610;-58
2023/06/24 13:38:45;;;;;;;3.22;2.92;;;;;;;28.69;34.24;100785.44;10392100;28;20052;-57
2023/06/24 13:43:46;;;;;;;4.47;3.55;;;;;;;28.67;34.53;100776.66;10385154;28;20127;-57
2023/06/24 13:48:49;;;;;;;3.60;3.30;;;;;;;28.64;34.34;100783.41;10385482;28;20123;-58
2023/06/24 13:53:52;;;;;;;4.50;2.95;;;;;;;28.64;34.62;100782.59;10394128;28;20178;-57
2023/06/24 13:58:54;;;;;;;4.18;3.15;;;;;;;28.61;34.30;100785.78;10382897;22;20029;-68
2023/06/24 14:03:56;;;;;;;10.00;4.40;;;;;;;28.63;34.45;100776.28;10356971;28;20057;-67
2023/06/24 14:08:57;;;;;;;3.80;3.07;;;;;;;28.77;34.36;100782.41;10359023;28;20049;-68
2023/06/24 14:13:59;;;;;;;3.60;3.30;;;;;;;28.99;33.88;100776.41;10389671;28;20041;-70
2023/06/24 14:19:00;;;;;;;3.63;3.20;;;;;;;29.09;34.28;100760.22;10415820;28;20053;-69
2023/06/24 14:24:02;;;;;;;3.80;3.50;;;;;;;28.99;34.11;100759.97;10345762;28;20053;-68
2023/06/24 14:29:17;;;;;;;2.90;2.70;;;;;;;29.04;33.68;100740.94;10354680;28;20055;-69
2023/06/24 14:34:18;;;;;;;4.00;3.10;;;;;;;29.00;33.08;100751.50;10357669;28;20060;-67
2023/06/24 14:39:20;;;;;;;3.40;3.10;;;;;;;28.88;33.14;100737.78;10362336;28;20144;-67
2023/06/24 14:44:21;;;;;;;4.53;2.80;;;;;;;28.75;33.62;100738.00;10362306;28;20041;-67
2023/06/24 14:49:22;;;;;;;5.60;3.40;;;;;;;28.77;33.04;100730.38;10357361;28;20187;-67
2023/06/24 14:54:24;;;;;;;3.50;3.20;;;;;;;28.86;32.57;100728.97;10355969;28;20057;-68
2023/06/24 14:59:25;;;;;;;3.83;3.53;;;;;;;28.92;32.73;100722.53;10352410;28;20191;-68
2023/06/24 15:04:27;;;;;;;3.88;3.53;;;;;;;28.85;32.27;100719.06;10338713;28;20046;-67
2023/06/24 15:09:28;;;;;;;4.78;3.13;;;;;;;28.78;32.99;100712.88;10357389;28;20172;-67
2023/06/24 15:14:30;;;;;;;4.63;4.20;;;;;;;28.74;33.34;100700.72;10346183;28;20076;-67
2023/06/24 15:19:31;;;;;;;3.83;3.53;;;;;;;28.81;33.48;100712.41;10367477;28;20049;-67
2023/06/24 15:24:33;;;;;;;3.90;3.50;;;;;;;28.80;32.64;100709.91;10379922;28;20128;-67
2023/06/24 15:29:34;;;;;;;3.35;3.05;;;;;;;28.62;33.49;100694.34;10353230;28;20065;-69
2023/06/24 15:34:36;;;;;;;3.47;3.08;;;;;;;28.69;33.46;100697.81;10339319;28;20062;-67
2023/06/24 15:39:37;;;;;;;3.45;3.00;;;;;;;28.59;33.68;100681.94;10353588;28;20748;-68
2023/06/24 15:44:39;;;;;;;3.08;2.78;;;;;;;28.63;33.33;100685.91;10352548;28;20061;-68
2023/06/24 15:49:40;;;;;;;3.67;3.15;;;;;;;28.65;32.83;100682.94;10344276;28;20049;-68
2023/06/24 15:54:42;;;;;;;3.37;2.70;;;;;;;28.62;33.26;100680.66;10353901;28;20098;-68
2023/06/24 15:59:43;;;;;;;3.30;3.00;;;;;;;28.59;33.69;100676.44;10355565;28;20045;-68
2023/06/24 16:04:45;;;;;;;3.45;2.72;;;;;;;28.58;33.29;100672.03;10353908;28;20088;-68
2023/06/24 16:09:46;;;;;;;3.17;2.90;;;;;;;28.61;33.42;100670.78;10354264;28;20388;-68
2023/06/24 16:14:47;;;;;;;3.42;3.10;;;;;;;28.65;33.39;100670.06;10351657;28;20061;-68
2023/06/24 16:19:49;;;;;;;4.07;3.00;;;;;;;28.63;33.33;100663.16;10352841;28;20075;-68
2023/06/24 16:24:50;;;;;;;3.30;3.10;;;;;;;28.61;33.31;100668.03;10351792;28;20140;-68
2023/06/24 16:29:51;;;;;;;3.83;3.00;;;;;;;28.47;33.30;100654.50;10355017;28;20057;-70
2023/06/24 16:34:53;;;;;;;4.75;3.30;;;;;;;28.45;33.65;100651.19;10343760;28;20129;-68
2023/06/24 16:39:54;;;;;;;3.03;2.75;;;;;;;28.41;33.89;100646.41;10343472;28;20068;-69
2023/06/24 16:44:56;;;;;;;3.60;3.30;;;;;;;28.30;34.17;100646.13;10310217;28;20053;-68
2023/06/24 16:49:58;;;;;;;4.10;3.70;;;;;;;28.32;34.63;100643.97;10352970;28;20049;-69
2023/06/24 16:55:01;;;;;;;4.30;3.30;;;;;;;28.31;34.86;100649.69;10351880;28;20095;-68
2023/06/24 17:00:03;;;;;;;3.38;2.97;;;;;;;28.31;34.86;100652.41;10369331;28;20041;-71
2023/06/24 17:05:05;;;;;;;3.03;2.83;;;;;;;28.29;34.91;100649.09;10416749;28;20046;-68
2023/06/24 17:10:06;;;;;;;4.28;3.15;;;;;;;28.27;35.05;100643.00;10368080;28;20069;-68
2023/06/24 17:15:09;;;;;;;5.10;2.60;;;;;;;28.21;34.50;100637.38;10362554;28;20068;-69
2023/06/24 17:20:11;;;;;;;4.20;3.20;;;;;;;28.12;35.58;100638.78;10360938;28;20084;-68
2023/06/24 17:25:13;;;;;;;3.83;3.13;;;;;;;28.06;35.23;100628.75;10342955;28;20060;-69
2023/06/24 17:30:14;;;;;;;4.88;3.47;;;;;;;28.04;35.44;100641.81;10355767;28;20045;-68
2023/06/24 17:35:16;;;;;;;3.80;3.50;;;;;;;28.00;35.20;100629.69;10375190;28;20057;-68
2023/06/24 17:40:18;;;;;;;3.42;3.05;;;;;;;27.95;34.96;100637.69;10361876;28;20061;-69
2023/06/24 17:45:19;;;;;;;4.87;3.20;;;;;;;27.85;35.00;100628.13;10339858;28;20049;-69
2023/06/24 17:50:24;;;;;;;3.63;3.20;;;;;;;27.85;35.31;100641.81;10357187;28;20092;-68
2023/06/24 17:55:33;;;;;;;3.33;3.03;;;;;;;27.76;35.42;100634.97;10352264;28;20049;-68
2023/06/24 18:00:39;;;;;;;3.65;3.35;;;;;;;27.69;35.36;100631.47;10341697;28;20057;-68
2023/06/24 18:05:41;;;;;;;3.45;2.75;;;;;;;27.64;35.60;100623.97;10333065;28;20049;-68
2023/06/24 18:10:43;;;;;;;5.30;4.03;;;;;;;27.61;35.50;100627.16;10345458;28;20061;-68
2023/06/24 18:15:45;;;;;;;3.75;3.45;;;;;;;27.56;36.16;100623.44;10336347;28;20057;-70
2023/06/24 18:20:47;;;;;;;4.90;3.23;;;;;;;27.49;35.92;100621.59;10348828;28;20123;-67
2023/06/24 18:25:48;;;;;;;3.17;2.83;;;;;;;27.49;35.89;100618.03;10347378;28;20604;-67
2023/06/24 18:30:50;;;;;;;3.40;3.10;;;;;;;27.41;36.60;100610.13;10349760;28;20427;-68
2023/06/24 18:35:52;;;;;;;4.40;3.05;;;;;;;27.39;37.18;100612.25;10346336;28;20057;-67
2023/06/24 18:40:53;;;;;;;3.40;3.03;;;;;;;27.33;37.14;100603.06;10347284;28;20071;-67
2023/06/24 18:45:54;;;;;;;3.20;2.67;;;;;;;27.26;37.16;100607.72;10341720;28;20057;-67
2023/06/24 18:50:56;;;;;;;4.53;3.27;;;;;;;27.22;37.37;100611.97;10347777;28;20058;-67
2023/06/24 18:55:57;;;;;;;3.50;3.17;;;;;;;27.16;37.80;100614.53;10328373;28;20057;-68
2023/06/24 19:00:59;;;;;;;4.85;3.17;;;;;;;27.09;37.94;100602.00;10346626;28;20096;-67
2023/06/24 19:06:00;;;;;;;4.82;3.28;;;;;;;27.05;38.34;100604.34;10345934;28;20168;-70
2023/06/24 19:11:02;;;;;;;5.13;3.22;;;;;;;26.95;38.15;100596.66;10343925;28;20671;-67
2023/06/24 19:16:04;;;;;;;3.55;3.25;;;;;;;26.91;38.23;100600.91;10346890;28;20618;-68
2023/06/24 19:21:05;;;;;;;4.30;3.23;;;;;;;26.86;38.52;100599.88;10342802;28;20049;-68
2023/06/24 19:26:07;;;;;;;3.93;3.40;;;;;;;26.78;38.55;100596.41;10344074;28;20053;-68
2023/06/24 19:31:09;;;;;;;3.97;3.50;;;;;;;26.69;38.61;100591.41;10346011;28;21521;-68
2023/06/24 19:36:10;;;;;;;4.05;3.65;;;;;;;26.62;38.57;100596.91;10334089;28;20049;-67
2023/06/24 19:41:11;;;;;;;3.70;3.35;;;;;;;26.50;38.68;100585.00;10350375;28;20045;-67
2023/06/24 19:46:13;;;;;;;3.92;3.63;;;;;;;26.51;38.77;100601.16;10350946;28;20144;-68
2023/06/24 19:51:18;;;;;;;4.20;3.80;;;;;;;26.45;38.78;100602.91;10399794;28;20056;-65
2023/06/24 19:56:20;;;;;;;3.85;3.45;;;;;;;26.37;38.93;100600.44;10407260;28;20051;-66
2023/06/24 20:01:21;;;;;;;4.00;3.65;;;;;;;26.31;39.36;100609.50;10374914;28;20255;-67
2023/06/24 20:06:23;;;;;;;3.92;3.22;;;;;;;26.23;39.10;100604.31;10357571;28;22987;-67
2023/06/24 20:11:24;;;;;;;5.40;3.45;;;;;;;26.16;39.27;100598.88;10340764;28;20072;-70
2023/06/24 20:16:26;;;;;;;3.58;3.28;;;;;;;26.14;40.00;100605.59;10347563;28;20057;-67
2023/06/24 20:21:28;;;;;;;5.17;4.50;;;;;;;26.09;40.44;100598.94;10341721;28;20049;-68
2023/06/24 20:26:30;;;;;;;7.70;5.13;;;;;;;26.03;40.72;100593.50;10345085;28;20052;-66
2023/06/24 20:31:31;;;;;;;8.27;5.18;;;;;;;25.97;41.33;100595.16;10334486;28;20053;-68
2023/06/24 20:36:33;;;;;;;5.55;4.60;;;;;;;25.93;41.23;100599.38;10352259;28;20140;-67
2023/06/24 20:41:34;;;;;;;5.55;4.32;;;;;;;25.85;41.37;100594.16;10340479;28;20068;-67
2023/06/24 20:46:36;;;;;;;7.25;4.90;;;;;;;25.82;41.10;100597.31;10346901;28;20586;-67
2023/06/24 20:51:40;;;;;;;6.18;4.20;;;;;;;25.74;41.71;100591.06;10330375;28;20172;-67
2023/06/24 20:56:42;;;;;;;4.45;4.05;;;;;;;25.67;41.57;100590.28;10343796;28;20166;-67
2023/06/24 21:01:43;;;;;;;4.63;4.03;;;;;;;25.63;42.02;100593.66;10345501;28;20103;-67
2023/06/24 21:06:45;;;;;;;5.57;5.07;;;;;;;25.56;42.63;100582.75;10351301;28;20054;-67
2023/06/24 21:11:46;;;;;;;5.43;4.85;;;;;;;25.54;42.58;100579.41;10331340;28;20050;-67
2023/06/24 21:16:47;;;;;;;5.13;4.53;;;;;;;25.46;42.40;100587.81;10338380;28;20058;-68
2023/06/24 21:21:49;;;;;;;6.30;5.72;;;;;;;25.44;42.25;100593.47;10354919;28;20123;-67
2023/06/24 21:26:50;;;;;;;5.53;4.63;;;;;;;25.36;42.78;100589.09;10350203;28;20413;-69
2023/06/24 21:31:52;;;;;;;4.32;3.92;;;;;;;25.37;43.18;100604.41;10358734;28;20045;-67
2023/06/24 21:36:53;;;;;;;4.75;4.18;;;;;;;25.31;43.44;100599.81;10368753;28;20103;-67
2023/06/24 21:41:54;;;;;;;4.47;4.05;;;;;;;25.24;43.18;100590.75;10367156;28;20062;-67
2023/06/24 21:46:56;;;;;;;5.32;4.82;;;;;;;25.18;43.16;100588.91;10364510;28;20120;-67
2023/06/24 21:51:57;;;;;;;4.40;4.10;;;;;;;25.13;43.79;100591.41;10361854;28;20046;-68
2023/06/24 21:56:59;;;;;;;5.53;4.82;;;;;;;25.08;43.81;100586.59;10359045;28;20066;-67
2023/06/24 22:02:01;;;;;;;4.78;4.38;;;;;;;25.07;43.57;100595.78;10360998;28;20058;-68
2023/06/24 22:07:02;;;;;;;5.80;4.97;;;;;;;25.03;43.82;100595.38;10381768;28;20103;-69
2023/06/24 22:12:06;;;;;;;5.13;4.70;;;;;;;24.99;44.10;100598.75;10369720;28;20555;-68
2023/06/24 22:17:07;;;;;;;5.82;5.18;;;;;;;24.89;44.19;100591.00;10361702;28;20152;-69
2023/06/24 22:22:08;;;;;;;5.65;4.70;;;;;;;24.86;44.52;100596.84;10362688;28;20898;-69
2023/06/24 22:27:10;;;;;;;4.97;4.47;;;;;;;24.80;44.58;100592.25;10361485;28;20058;-67
2023/06/24 22:32:11;;;;;;;6.10;4.75;;;;;;;24.74;44.86;100591.22;10346705;28;20054;-69
2023/06/24 22:37:13;;;;;;;5.47;4.95;;;;;;;24.65;45.15;100593.31;10378824;28;20056;-71
2023/06/24 22:42:14;;;;;;;5.35;4.63;;;;;;;24.64;45.53;100590.78;10409978;28;20077;-68
2023/06/24 22:47:16;;;;;;;6.72;5.63;;;;;;;24.60;45.53;100592.25;10362875;28;20052;-68
2023/06/24 22:52:17;;;;;;;5.50;4.30;;;;;;;24.54;45.87;100591.16;10349102;28;20496;-69
2023/06/24 22:57:19;;;;;;;5.93;5.20;;;;;;;24.42;45.76;100592.81;10359645;28;20159;-69
2023/06/24 23:02:20;;;;;;;5.78;4.72;;;;;;;24.40;46.01;100594.91;10352958;28;20603;-67
2023/06/24 23:07:24;;;;;;;5.20;4.80;;;;;;;24.31;46.48;100586.13;10346729;28;20057;-67
2023/06/24 23:12:27;;;;;;;4.60;4.20;;;;;;;24.25;46.90;100593.19;10360600;28;20049;-67
2023/06/24 23:17:28;;;;;;;4.72;4.15;;;;;;;24.22;46.77;100593.63;10360992;28;20416;-67